Time;durP1;ratioP1;P1;durP2;ratioP2;P2;SDS_P1;SDS_P2;PMS_P1;PMS_P2;Temp;Humidity;BMP_temperature;BMP_pressure;BME280_temperature;BME280_humidity;BME280_pressure;Samples;Min_cycle;Max_cycle;Signal;HPM_P1;HPM_P2
2021/06/14 05:02:00;;;;;;;5.88;3.25;;;14.00;97.30;;;;;;5207771;23;20056;-77
2021/06/14 05:04:27;;;;;;;7.55;3.40;;;14.00;97.50;;;;;;4915466;29;20048;-79
2021/06/14 05:06:55;;;;;;;7.00;3.30;;;14.00;97.70;;;;;;4915491;29;20131;-80
2021/06/14 05:09:22;;;;;;;7.15;3.30;;;14.00;97.80;;;;;;4915356;29;20048;-79
2021/06/14 05:11:49;;;;;;;5.30;3.15;;;14.00;98.00;;;;;;4915239;29;20333;-79
2021/06/14 05:14:16;;;;;;;5.68;3.25;;;14.00;98.20;;;;;;4915273;29;20139;-78
2021/06/14 05:16:43;;;;;;;4.57;2.90;;;14.00;98.40;;;;;;4914989;29;20079;-80
2021/06/14 05:19:12;;;;;;;7.40;3.47;;;14.00;98.50;;;;;;4915333;29;20066;-79
2021/06/14 05:21:39;;;;;;;6.70;3.40;;;14.10;98.50;;;;;;4915165;29;20131;-80
2021/06/14 05:24:07;;;;;;;7.32;3.65;;;14.10;98.40;;;;;;4915144;29;20138;-79
2021/06/14 05:26:34;;;;;;;6.00;3.42;;;14.20;98.50;;;;;;4915046;29;20131;-79
2021/06/14 05:29:01;;;;;;;6.60;3.80;;;14.20;98.50;;;;;;4915096;29;20490;-79
2021/06/14 05:31:28;;;;;;;7.88;3.97;;;14.30;98.30;;;;;;4915001;29;20144;-79
2021/06/14 05:33:55;;;;;;;5.20;3.20;;;14.30;98.40;;;;;;4914931;29;20131;-80
2021/06/14 05:36:24;;;;;;;6.82;3.60;;;14.30;98.40;;;;;;4914718;29;20135;-79
2021/06/14 05:38:51;;;;;;;6.65;3.40;;;14.40;98.50;;;;;;4914691;29;20143;-79
2021/06/14 05:41:18;;;;;;;7.10;3.38;;;14.40;98.40;;;;;;4915276;29;20135;-80
2021/06/14 05:43:45;;;;;;;4.60;3.10;;;14.60;98.40;;;;;;4917421;29;20142;-79
2021/06/14 05:46:12;;;;;;;6.95;3.30;;;14.70;98.30;;;;;;4917114;29;20138;-80
2021/06/14 05:48:39;;;;;;;6.45;3.00;;;14.80;98.30;;;;;;4917058;29;20142;-80
2021/06/14 05:51:06;;;;;;;7.57;3.72;;;14.90;98.40;;;;;;4917039;29;20130;-79
2021/06/14 05:56:00;;;;;;;5.60;2.92;;;15.10;97.90;;;;;;4980896;23;20052;-82
2021/06/14 05:58:27;;;;;;;5.88;3.42;;;15.20;97.60;;;;;;4935988;29;20445;-83
2021/06/14 06:00:54;;;;;;;5.95;3.08;;;15.30;97.30;;;;;;4936021;29;20134;-82
2021/06/14 06:03:21;;;;;;;7.63;3.25;;;15.40;96.90;;;;;;4935796;29;20139;-82
2021/06/14 06:05:48;;;;;;;4.95;3.05;;;15.50;96.80;;;;;;4936073;29;20472;-82
2021/06/14 06:08:15;;;;;;;5.20;3.10;;;15.60;96.70;;;;;;4935941;29;20142;-83
2021/06/14 06:10:42;;;;;;;5.40;3.10;;;15.70;96.60;;;;;;4936112;29;20151;-83
2021/06/14 06:13:10;;;;;;;6.47;3.28;;;15.70;96.40;;;;;;4935668;29;20564;-83
2021/06/14 06:15:37;;;;;;;7.72;3.50;;;15.80;96.10;;;;;;4935738;29;20152;-83
2021/06/14 06:18:05;;;;;;;6.00;3.60;;;15.90;95.90;;;;;;4935657;29;20127;-83
2021/06/14 06:20:32;;;;;;;5.32;3.03;;;16.00;95.80;;;;;;4935545;29;20048;-82
2021/06/14 06:22:59;;;;;;;6.00;3.40;;;16.00;95.70;;;;;;4935766;29;20146;-84
2021/06/14 06:25:28;;;;;;;5.15;2.92;;;16.10;95.60;;;;;;4935598;29;20139;-82
2021/06/14 06:27:56;;;;;;;7.22;2.80;;;16.20;95.60;;;;;;4935541;29;20134;-83
2021/06/14 06:30:28;;;;;;;5.63;2.92;;;16.30;95.30;;;;;;4938925;29;20478;-83
2021/06/14 06:32:56;;;;;;;6.53;3.28;;;16.30;95.20;;;;;;4939560;29;20130;-84
2021/06/14 06:35:24;;;;;;;5.43;3.20;;;16.40;95.10;;;;;;4939858;29;20138;-84
2021/06/14 06:37:51;;;;;;;5.57;2.92;;;16.50;95.20;;;;;;4939362;29;20568;-84
2021/06/14 06:40:19;;;;;;;5.60;2.95;;;16.60;95.30;;;;;;4939459;29;20134;-84
2021/06/14 06:42:46;;;;;;;7.65;3.00;;;16.60;95.10;;;;;;4939214;29;20560;-84
2021/06/14 06:45:15;;;;;;;6.75;3.20;;;16.70;94.90;;;;;;4939206;29;20136;-84
2021/06/14 06:47:44;;;;;;;6.82;3.28;;;16.80;94.80;;;;;;4939135;29;20565;-84
2021/06/14 06:50:12;;;;;;;5.55;3.00;;;16.90;94.70;;;;;;4939217;29;20473;-84
2021/06/14 06:52:41;;;;;;;6.63;3.50;;;16.90;94.50;;;;;;4939264;29;20138;-84
2021/06/14 06:55:11;;;;;;;7.10;3.50;;;17.00;94.40;;;;;;4938926;29;20147;-84
2021/06/14 06:57:39;;;;;;;6.57;2.80;;;17.10;94.10;;;;;;4938908;29;20138;-84
2021/06/14 07:00:10;;;;;;;6.70;3.15;;;17.10;94.30;;;;;;4938809;29;20472;-84
2021/06/14 07:02:37;;;;;;;6.60;3.13;;;17.20;94.40;;;;;;4922508;29;20577;-84
2021/06/14 07:05:07;;;;;;;7.28;2.80;;;17.30;94.20;;;;;;4938710;29;20086;-83
2021/06/14 07:07:34;;;;;;;6.93;2.78;;;17.30;94.10;;;;;;4939038;29;20051;-84
2021/06/14 07:10:04;;;;;;;6.07;2.83;;;17.50;93.90;;;;;;4939217;29;20155;-84
2021/06/14 07:12:33;;;;;;;7.18;2.20;;;17.60;93.80;;;;;;4938978;29;20425;-84
2021/06/14 07:15:00;;;;;;;4.93;2.10;;;17.70;93.40;;;;;;4938731;29;20052;-83
2021/06/14 07:17:27;;;;;;;6.55;2.13;;;17.70;93.10;;;;;;4938865;29;20138;-83
2021/06/14 07:19:54;;;;;;;6.25;2.08;;;17.80;92.70;;;;;;4938692;29;20143;-84
2021/06/14 07:22:23;;;;;;;5.68;2.38;;;17.90;92.50;;;;;;4938736;29;20086;-84
2021/06/14 07:24:50;;;;;;;5.40;1.85;;;18.00;92.20;;;;;;4938703;29;20075;-84
2021/06/14 07:27:17;;;;;;;4.68;1.88;;;18.10;92.00;;;;;;4938464;29;20135;-84
2021/06/14 07:29:44;;;;;;;4.20;2.25;;;18.20;91.60;;;;;;4938456;29;20051;-84
2021/06/14 07:32:11;;;;;;;4.88;1.88;;;18.30;91.40;;;;;;4938773;29;20146;-84
2021/06/14 07:34:38;;;;;;;4.18;2.08;;;18.40;91.30;;;;;;4938516;29;20135;-83
2021/06/14 07:37:05;;;;;;;4.30;1.90;;;18.50;90.60;;;;;;4938345;29;20493;-84
2021/06/14 07:39:34;;;;;;;5.88;2.00;;;18.60;90.40;;;;;;4937760;29;20058;-83
2021/06/14 07:42:01;;;;;;;5.32;1.90;;;18.60;90.30;;;;;;4938207;29;20134;-84
2021/06/14 07:44:28;;;;;;;5.38;1.80;;;18.70;90.50;;;;;;4938055;29;20111;-84
2021/06/14 07:46:56;;;;;;;4.68;1.70;;;18.70;89.80;;;;;;4938104;29;20081;-84
2021/06/14 07:49:23;;;;;;;4.05;1.90;;;18.80;89.40;;;;;;4938215;29;20048;-84
2021/06/14 07:51:51;;;;;;;6.18;2.33;;;18.90;88.60;;;;;;4938042;29;20044;-84
2021/06/14 07:54:18;;;;;;;4.53;1.73;;;19.00;87.80;;;;;;4937847;29;20055;-84
2021/06/14 07:56:48;;;;;;;9.55;2.65;;;19.00;86.90;;;;;;4938275;29;20075;-84
2021/06/14 07:59:15;;;;;;;4.38;1.60;;;19.10;86.20;;;;;;4938150;29;20047;-84
2021/06/14 08:01:42;;;;;;;5.97;1.65;;;19.20;86.20;;;;;;4938058;29;20086;-84
2021/06/14 08:04:09;;;;;;;4.25;1.70;;;19.30;85.60;;;;;;4937880;29;20139;-84
2021/06/14 08:06:37;;;;;;;4.88;1.70;;;19.40;85.00;;;;;;4937829;29;20466;-85
2021/06/14 08:09:07;;;;;;;4.43;1.77;;;19.40;84.10;;;;;;4937826;29;20138;-85
2021/06/14 08:11:35;;;;;;;5.53;2.00;;;19.50;83.40;;;;;;4937671;29;20044;-85
2021/06/14 08:14:05;;;;;;;4.55;1.75;;;19.50;82.40;;;;;;4937726;29;20079;-84
2021/06/14 08:16:39;;;;;;;4.60;1.88;;;19.60;81.40;;;;;;4937492;29;20535;-85
2021/06/14 08:19:08;;;;;;;5.80;2.00;;;19.60;80.40;;;;;;4937502;29;20087;-85
2021/06/14 08:21:46;;;;;;;5.60;1.63;;;19.70;80.30;;;;;;4937478;29;20061;-84
2021/06/14 08:26:58;;;;;;;5.30;2.15;;;19.80;79.70;;;;;;4937575;29;20058;-84
2021/06/14 08:29:29;;;;;;;3.90;1.80;;;19.90;79.30;;;;;;4937254;29;20508;-85
2021/06/14 08:31:56;;;;;;;4.45;1.50;;;20.00;78.70;;;;;;4937471;29;20130;-84
2021/06/14 08:34:23;;;;;;;3.83;1.70;;;20.10;78.40;;;;;;4937221;29;20159;-83
2021/06/14 08:36:50;;;;;;;4.38;2.13;;;20.20;77.90;;;;;;4937360;29;20071;-85
2021/06/14 08:39:18;;;;;;;4.30;1.95;;;20.30;75.60;;;;;;4937171;29;20055;-85
2021/06/14 08:41:45;;;;;;;3.90;1.90;;;20.30;75.60;;;;;;4937684;29;20087;-85
2021/06/14 08:44:13;;;;;;;3.42;1.40;;;20.40;75.10;;;;;;4937062;29;20087;-85
2021/06/14 08:46:43;;;;;;;3.80;1.42;;;20.50;75.10;;;;;;4937360;29;20134;-84
2021/06/14 08:49:12;;;;;;;3.90;1.45;;;20.60;75.40;;;;;;4937199;29;20047;-84
2021/06/14 08:51:39;;;;;;;4.13;1.88;;;20.70;74.20;;;;;;4936260;29;20055;-83
2021/06/14 08:54:07;;;;;;;3.47;1.60;;;20.70;73.30;;;;;;4936827;29;20048;-85
2021/06/14 08:56:34;;;;;;;5.07;1.45;;;20.80;71.80;;;;;;4936929;29;20047;-84
2021/06/14 08:59:03;;;;;;;4.63;1.50;;;20.90;71.50;;;;;;4936902;29;20076;-84
2021/06/14 09:01:30;;;;;;;4.57;1.60;;;21.00;71.20;;;;;;4937044;29;20080;-84
2021/06/14 09:03:59;;;;;;;4.80;1.35;;;21.10;68.10;;;;;;4936984;29;20048;-84
2021/06/14 09:06:26;;;;;;;3.15;1.33;;;21.10;67.30;;;;;;4936757;29;20134;-84
2021/06/14 09:08:58;;;;;;;3.35;1.55;;;21.20;67.30;;;;;;4936824;29;20384;-84
2021/06/14 09:11:26;;;;;;;3.88;1.55;;;21.30;66.40;;;;;;4936584;29;20154;-84
2021/06/14 09:13:53;;;;;;;3.75;1.40;;;21.40;65.30;;;;;;4936815;29;20079;-85
2021/06/14 09:16:22;;;;;;;4.90;1.38;;;21.40;66.10;;;;;;4936676;29;20470;-85
2021/06/14 09:18:50;;;;;;;3.88;1.80;;;21.50;66.30;;;;;;4936424;29;20524;-85
2021/06/14 09:21:19;;;;;;;4.40;1.58;;;21.60;66.20;;;;;;4936459;29;20101;-84
2021/06/14 09:23:51;;;;;;;4.10;1.63;;;21.60;66.80;;;;;;4936313;29;20075;-86
2021/06/14 09:26:31;;;;;;;5.35;1.98;;;21.70;67.00;;;;;;4936542;29;20135;-84
2021/06/14 09:29:01;;;;;;;5.72;1.80;;;21.70;67.00;;;;;;4936426;29;20234;-83
2021/06/14 09:31:38;;;;;;;4.43;1.88;;;21.70;67.40;;;;;;4936165;29;20055;-84
2021/06/14 09:34:05;;;;;;;3.78;1.60;;;21.80;65.70;;;;;;4936276;29;20063;-84
2021/06/14 09:36:34;;;;;;;3.55;1.52;;;21.80;64.80;;;;;;4936096;29;20143;-84
2021/06/14 09:39:10;;;;;;;3.95;1.48;;;21.90;63.90;;;;;;4935999;29;20139;-84
2021/06/14 09:41:42;;;;;;;3.13;1.42;;;21.90;64.30;;;;;;4936109;29;20048;-84
2021/06/14 09:44:10;;;;;;;5.03;1.88;;;22.00;63.40;;;;;;4936058;29;20143;-85
2021/06/14 09:46:38;;;;;;;4.15;1.50;;;22.10;63.00;;;;;;4936218;29;20442;-85
2021/06/14 09:49:06;;;;;;;3.25;1.40;;;22.10;62.70;;;;;;4935975;29;20071;-86
2021/06/14 09:51:35;;;;;;;3.55;1.65;;;22.10;62.40;;;;;;4936020;29;20485;-85
2021/06/14 09:54:03;;;;;;;3.92;1.60;;;22.20;62.40;;;;;;4936019;29;20147;-84
2021/06/14 09:56:35;;;;;;;4.03;1.70;;;22.20;62.60;;;;;;4936196;29;20138;-85
2021/06/14 09:59:07;;;;;;;4.07;1.60;;;22.30;62.50;;;;;;4935984;29;20498;-84
2021/06/14 10:01:38;;;;;;;3.53;1.60;;;22.30;62.80;;;;;;4935898;29;20103;-84
2021/06/14 10:04:07;;;;;;;3.38;1.55;;;22.30;62.40;;;;;;4935916;29;20044;-84
2021/06/14 10:06:39;;;;;;;3.33;1.50;;;22.40;62.60;;;;;;4936251;29;20134;-84
2021/06/14 10:09:12;;;;;;;5.05;1.83;;;22.40;63.10;;;;;;4935861;29;20052;-84
2021/06/14 10:11:41;;;;;;;3.72;1.40;;;22.50;62.20;;;;;;4935832;29;20058;-84
2021/06/14 10:14:13;;;;;;;4.53;1.70;;;22.50;62.50;;;;;;4936234;29;20052;-85
2021/06/14 10:16:41;;;;;;;6.50;1.83;;;22.50;62.50;;;;;;4935779;29;20489;-84
2021/06/14 10:19:11;;;;;;;5.10;2.00;;;22.60;63.00;;;;;;4935777;29;20147;-84
2021/06/14 10:21:42;;;;;;;4.25;1.70;;;22.70;62.60;;;;;;4935727;29;20472;-85
2021/06/14 10:24:12;;;;;;;4.05;1.75;;;22.70;62.60;;;;;;4935614;29;20048;-83
2021/06/14 10:26:44;;;;;;;4.90;1.80;;;22.70;62.30;;;;;;4935759;29;20052;-83
2021/06/14 10:29:14;;;;;;;3.97;1.80;;;22.80;61.30;;;;;;4935733;29;20048;-84
2021/06/14 10:31:43;;;;;;;3.28;1.48;;;22.70;61.00;;;;;;4935669;29;20051;-83
2021/06/14 10:34:13;;;;;;;5.63;2.10;;;22.80;61.50;;;;;;4935663;29;20099;-83
2021/06/14 10:36:48;;;;;;;4.25;1.80;;;22.80;61.50;;;;;;4935531;29;20434;-83
2021/06/14 10:39:16;;;;;;;5.00;1.80;;;22.90;61.20;;;;;;4935679;29;20126;-83
2021/06/14 10:41:45;;;;;;;4.03;1.50;;;23.00;60.30;;;;;;4935890;29;20111;-83
2021/06/14 10:44:12;;;;;;;3.60;1.38;;;23.00;60.10;;;;;;4935512;29;20078;-84
2021/06/14 10:46:45;;;;;;;5.03;1.67;;;23.10;60.70;;;;;;4935585;29;20497;-83
2021/06/14 10:49:14;;;;;;;4.00;1.58;;;23.10;59.80;;;;;;4935513;29;20052;-84
2021/06/14 10:51:44;;;;;;;3.80;1.90;;;23.10;60.30;;;;;;4935372;29;20078;-83
2021/06/14 10:54:15;;;;;;;4.65;1.80;;;23.20;60.70;;;;;;4935349;29;20075;-84
2021/06/14 10:56:42;;;;;;;3.08;1.50;;;23.30;60.00;;;;;;4935490;29;20056;-85
2021/06/14 10:59:14;;;;;;;3.10;1.40;;;23.30;59.90;;;;;;4935245;29;20044;-85
2021/06/14 11:01:44;;;;;;;4.35;2.05;;;23.40;59.90;;;;;;4935226;29;20047;-85
2021/06/14 11:04:24;;;;;;;3.63;1.90;;;23.40;60.10;;;;;;4935235;29;20044;-84
2021/06/14 11:06:54;;;;;;;3.30;1.40;;;23.40;59.10;;;;;;4935410;29;20052;-85
2021/06/14 11:09:22;;;;;;;4.95;1.85;;;23.50;58.80;;;;;;4935301;29;20142;-85
2021/06/14 11:11:54;;;;;;;3.50;1.67;;;23.50;59.50;;;;;;4934983;29;20139;-85
2021/06/14 11:14:34;;;;;;;4.95;1.90;;;23.50;59.30;;;;;;4935282;29;20497;-85
2021/06/14 11:17:15;;;;;;;3.90;1.80;;;23.60;59.70;;;;;;4938891;29;20054;-84
2021/06/14 11:19:42;;;;;;;5.05;1.70;;;23.60;59.20;;;;;;4938797;29;20054;-84
2021/06/14 11:22:11;;;;;;;3.08;1.25;;;23.70;58.10;;;;;;4938710;29;20391;-84
2021/06/14 11:24:40;;;;;;;5.07;1.48;;;23.60;57.40;;;;;;4938450;29;20086;-84
2021/06/14 11:27:09;;;;;;;3.13;1.13;;;23.70;58.20;;;;;;4938692;29;20446;-84
2021/06/14 11:29:46;;;;;;;4.13;1.65;;;23.80;57.90;;;;;;4938699;29;20069;-85
2021/06/14 11:32:19;;;;;;;5.65;1.70;;;23.80;58.20;;;;;;4938684;29;20450;-85
2021/06/14 11:34:54;;;;;;;3.35;1.42;;;24.00;58.60;;;;;;4938591;29;20047;-85
2021/06/14 11:37:23;;;;;;;4.82;1.65;;;24.00;58.80;;;;;;4938420;29;20134;-84
2021/06/14 11:40:00;;;;;;;5.47;1.90;;;24.00;58.20;;;;;;4936690;29;20130;-84
2021/06/14 11:42:28;;;;;;;5.00;1.65;;;24.10;57.10;;;;;;4938472;29;20075;-84
2021/06/14 11:44:58;;;;;;;4.70;1.85;;;24.20;57.30;;;;;;4938477;29;20062;-85
2021/06/14 11:47:31;;;;;;;3.70;1.50;;;24.20;58.20;;;;;;4938283;29;20217;-84
2021/06/14 11:50:03;;;;;;;3.75;1.40;;;24.30;57.90;;;;;;4938140;29;20102;-85
2021/06/14 11:52:35;;;;;;;3.22;1.45;;;24.40;58.00;;;;;;4938293;29;20079;-84
2021/06/14 11:55:11;;;;;;;3.67;1.70;;;24.50;57.70;;;;;;4938017;29;20059;-85
2021/06/14 11:57:43;;;;;;;2.60;1.17;;;24.60;56.70;;;;;;4938015;29;20497;-85
2021/06/14 12:00:14;;;;;;;6.90;1.83;;;24.70;56.90;;;;;;4937958;29;20493;-84
2021/06/14 12:02:42;;;;;;;3.35;1.45;;;24.80;55.30;;;;;;4937835;29;20047;-85
2021/06/14 12:05:12;;;;;;;5.22;1.52;;;24.80;54.50;;;;;;4938041;29;20043;-85
2021/06/14 12:07:41;;;;;;;4.35;1.50;;;24.90;53.70;;;;;;4937862;29;20138;-85
2021/06/14 12:10:13;;;;;;;4.15;1.38;;;24.90;53.50;;;;;;4937696;29;20048;-85
2021/06/14 12:12:41;;;;;;;5.80;1.70;;;25.00;53.70;;;;;;4937976;29;20051;-84
2021/06/14 12:15:10;;;;;;;3.95;1.70;;;25.10;53.30;;;;;;4937828;29;20047;-85
2021/06/14 12:17:41;;;;;;;2.80;1.20;;;25.20;53.90;;;;;;4937752;29;20130;-84
2021/06/14 12:20:10;;;;;;;4.55;2.10;;;25.20;53.60;;;;;;4937737;29;20102;-85
2021/06/14 12:22:40;;;;;;;2.72;1.38;;;25.40;52.90;;;;;;4937630;29;20044;-86
2021/06/14 12:25:11;;;;;;;3.90;1.40;;;25.50;53.10;;;;;;4937488;29;20453;-85
2021/06/14 12:27:38;;;;;;;5.68;1.52;;;25.60;52.50;;;;;;4936496;29;20052;-85
2021/06/14 12:30:10;;;;;;;3.10;1.40;;;25.70;52.50;;;;;;4937249;29;20087;-86
2021/06/14 12:32:38;;;;;;;4.60;1.52;;;25.80;52.50;;;;;;4937482;29;20126;-85
2021/06/14 12:35:10;;;;;;;4.20;1.50;;;25.90;51.30;;;;;;4937163;29;20580;-85
2021/06/14 12:37:37;;;;;;;3.15;1.30;;;25.90;50.70;;;;;;4937257;29;20473;-86
2021/06/14 12:40:08;;;;;;;3.70;1.23;;;26.00;50.50;;;;;;4937129;29;20713;-86
2021/06/14 12:42:37;;;;;;;2.85;1.20;;;26.10;51.00;;;;;;4937564;29;20079;-86
2021/06/14 12:45:07;;;;;;;3.28;1.33;;;26.20;51.00;;;;;;4937268;29;20135;-86
2021/06/14 12:47:36;;;;;;;2.47;1.10;;;26.30;51.30;;;;;;4937128;29;20052;-85
2021/06/14 12:50:05;;;;;;;3.17;1.20;;;26.50;51.40;;;;;;4936993;29;20047;-85
2021/06/14 12:52:32;;;;;;;3.67;1.20;;;26.60;51.30;;;;;;4936870;29;20052;-86
2021/06/14 12:55:00;;;;;;;3.60;1.30;;;26.70;50.30;;;;;;4936971;29;20142;-85
2021/06/14 12:57:40;;;;;;;3.47;1.40;;;26.80;49.60;;;;;;4936836;29;20138;-86
2021/06/14 13:00:12;;;;;;;4.85;1.67;;;26.90;49.70;;;;;;4936978;29;20442;-85
2021/06/14 13:02:40;;;;;;;4.22;1.83;;;27.00;49.10;;;;;;4920315;29;20498;-85
2021/06/14 13:05:14;;;;;;;3.03;1.52;;;27.10;49.40;;;;;;4937012;29;20107;-85
2021/06/14 13:07:52;;;;;;;3.45;1.58;;;27.20;49.70;;;;;;4936704;29;20047;-85
2021/06/14 13:10:21;;;;;;;3.58;1.30;;;27.40;48.80;;;;;;4936656;29;20147;-84
2021/06/14 13:12:49;;;;;;;2.95;1.33;;;27.50;49.00;;;;;;4936664;29;20107;-84
2021/06/14 13:15:18;;;;;;;3.85;1.30;;;27.60;48.80;;;;;;4936513;29;20052;-84
2021/06/14 13:17:50;;;;;;;3.05;1.35;;;27.70;48.10;;;;;;4936661;29;20131;-84
2021/06/14 13:20:22;;;;;;;5.20;1.60;;;27.90;48.20;;;;;;4936529;29;20134;-84
2021/06/14 13:22:50;;;;;;;2.58;1.20;;;28.00;46.80;;;;;;4936393;29;20091;-84
2021/06/14 13:25:19;;;;;;;3.25;1.40;;;28.10;46.40;;;;;;4936408;29;20556;-84
2021/06/14 13:27:53;;;;;;;3.10;1.50;;;28.20;47.20;;;;;;4936601;29;20141;-84
2021/06/14 13:30:22;;;;;;;3.47;1.33;;;28.30;47.30;;;;;;4936809;29;20071;-84
2021/06/14 13:32:57;;;;;;;2.53;1.20;;;28.40;47.00;;;;;;4936383;29;20126;-84
2021/06/14 13:35:24;;;;;;;3.47;1.30;;;28.50;47.90;;;;;;4936292;29;20058;-84
2021/06/14 13:37:55;;;;;;;5.22;1.58;;;28.60;47.20;;;;;;4935811;29;20442;-84
2021/06/14 13:40:26;;;;;;;3.97;1.67;;;28.80;46.60;;;;;;4936179;29;20052;-84
2021/06/14 13:42:56;;;;;;;6.13;1.40;;;28.80;46.10;;;;;;4936388;29;20087;-84
2021/06/14 13:45:32;;;;;;;3.72;1.35;;;28.90;45.30;;;;;;4936368;29;20044;-84
2021/06/14 13:48:01;;;;;;;4.88;1.58;;;29.00;46.40;;;;;;4936009;29;20147;-84
2021/06/14 13:50:32;;;;;;;2.90;1.50;;;29.00;46.30;;;;;;4935921;29;20075;-84
2021/06/14 13:53:08;;;;;;;3.60;1.58;;;29.20;44.70;;;;;;4936069;29;20506;-84
2021/06/14 13:55:35;;;;;;;3.83;1.63;;;29.20;44.80;;;;;;4935910;29;20098;-84
2021/06/14 13:58:04;;;;;;;3.58;1.50;;;29.30;45.60;;;;;;4936035;29;20136;-84
2021/06/14 14:00:32;;;;;;;3.55;1.60;;;29.40;45.70;;;;;;4935899;29;20051;-84
2021/06/14 14:02:59;;;;;;;4.50;1.70;;;29.50;45.50;;;;;;4935791;29;20481;-84
2021/06/14 14:05:30;;;;;;;3.53;1.60;;;;;;;;;;4935713;29;20051;-83
2021/06/14 14:07:59;;;;;;;2.97;1.30;;;29.80;44.70;;;;;;4935813;29;20054;-84
2021/06/14 14:10:27;;;;;;;2.78;1.30;;;;;;;;;;4935871;29;20048;-84
2021/06/14 14:12:54;;;;;;;3.58;1.30;;;30.00;43.80;;;;;;4935742;29;20142;-83
2021/06/14 14:15:25;;;;;;;2.85;1.30;;;30.00;44.80;;;;;;4935785;29;20472;-83
2021/06/14 14:17:52;;;;;;;3.40;1.50;;;30.20;44.40;;;;;;4935896;29;20501;-83
2021/06/14 14:20:25;;;;;;;2.83;1.30;;;30.30;42.90;;;;;;4935913;29;20075;-83
2021/06/14 14:22:52;;;;;;;4.10;1.65;;;30.40;43.20;;;;;;4935840;29;20134;-84
2021/06/14 14:25:20;;;;;;;4.47;1.70;;;30.50;43.60;;;;;;4935591;29;20549;-83
2021/06/14 14:27:48;;;;;;;3.17;1.40;;;30.60;42.70;;;;;;4935490;29;20090;-83
2021/06/14 14:30:16;;;;;;;4.68;1.50;;;30.60;44.00;;;;;;4935460;29;20107;-83
2021/06/14 14:32:45;;;;;;;4.40;1.40;;;30.80;42.60;;;;;;4935329;29;20409;-83
2021/06/14 14:35:26;;;;;;;2.95;1.27;;;30.90;45.10;;;;;;4935590;29;20145;-83
2021/06/14 14:38:02;;;;;;;3.65;1.50;;;30.90;45.50;;;;;;4935562;29;20099;-83
2021/06/14 14:40:35;;;;;;;3.67;1.40;;;30.90;44.80;;;;;;4935333;29;20500;-83
2021/06/14 14:43:05;;;;;;;3.83;1.60;;;;;;;;;;4935606;29;20055;-84
2021/06/14 14:45:33;;;;;;;3.22;1.60;;;31.00;42.00;;;;;;4935213;29;20367;-83
2021/06/14 14:48:03;;;;;;;3.30;1.45;;;;;;;;;;4935390;29;20083;-84
2021/06/14 14:50:33;;;;;;;5.53;1.48;;;31.30;42.20;;;;;;4937138;29;20505;-84
2021/06/14 14:53:01;;;;;;;3.88;1.40;;;31.40;42.90;;;;;;4938978;29;20087;-84
2021/06/14 14:55:30;;;;;;;3.10;1.33;;;31.50;42.80;;;;;;4939123;29;20059;-83
2021/06/14 14:58:00;;;;;;;3.53;1.40;;;31.60;42.70;;;;;;4930783;29;20097;-90
2021/06/14 15:00:31;;;;;;;3.58;1.30;;;31.60;42.10;;;;;;4930964;29;20548;-84
2021/06/14 15:02:58;;;;;;;3.40;1.50;;;31.80;42.50;;;;;;4936174;29;20051;-87
2021/06/14 15:05:27;;;;;;;3.15;1.30;;;32.00;41.30;;;;;;4937228;29;20060;-86
2021/06/14 15:07:54;;;;;;;3.25;1.40;;;32.10;41.00;;;;;;4933637;29;20482;-85
2021/06/14 15:10:22;;;;;;;3.67;1.60;;;32.10;41.10;;;;;;4925403;29;20147;-84
2021/06/14 15:12:50;;;;;;;4.53;1.38;;;32.20;40.80;;;;;;4924986;29;20083;-85
2021/06/14 15:15:19;;;;;;;3.83;1.33;;;32.40;41.80;;;;;;4925459;29;20083;-85
2021/06/14 15:17:48;;;;;;;3.88;1.58;;;32.50;42.00;;;;;;4923284;29;20085;-86
2021/06/14 15:20:16;;;;;;;3.38;1.27;;;32.60;40.00;;;;;;4925999;29;20106;-85
2021/06/14 15:22:46;;;;;;;3.78;1.60;;;32.70;40.50;;;;;;4924789;29;20103;-86
2021/06/14 15:25:17;;;;;;;3.50;1.42;;;32.80;39.90;;;;;;4925511;29;20151;-86
2021/06/14 15:27:44;;;;;;;4.82;1.48;;;32.80;49.10;;;;;;4928780;29;20044;-86
2021/06/14 15:30:15;;;;;;;3.80;1.38;;;32.90;54.50;;;;;;4924950;29;20084;-85
2021/06/14 15:32:46;;;;;;;4.50;1.27;;;33.20;63.00;;;;;;4926867;29;20484;-85
2021/06/14 15:35:15;;;;;;;4.30;1.50;;;33.20;52.70;;;;;;4925945;29;20059;-85
2021/06/14 15:37:43;;;;;;;4.65;1.40;;;33.30;38.70;;;;;;4922325;29;20139;-85
2021/06/14 15:40:12;;;;;;;3.55;1.50;;;33.30;43.90;;;;;;4926329;29;20553;-85
2021/06/14 15:42:39;;;;;;;3.72;1.52;;;33.40;37.60;;;;;;4923955;29;20135;-85
2021/06/14 15:45:08;;;;;;;3.95;1.50;;;33.40;39.10;;;;;;4923656;29;20144;-85
2021/06/14 15:47:35;;;;;;;4.05;1.40;;;33.60;38.70;;;;;;4929675;29;20063;-86
2021/06/14 15:50:02;;;;;;;2.97;1.23;;;33.60;39.10;;;;;;4923991;29;20577;-85
2021/06/14 15:52:30;;;;;;;3.67;1.20;;;33.80;39.30;;;;;;4922008;29;20473;-86
2021/06/14 15:54:59;;;;;;;3.40;1.35;;;34.10;45.20;;;;;;4930927;29;20052;-85
2021/06/14 15:57:26;;;;;;;2.67;1.20;;;34.30;37.80;;;;;;4931749;29;20048;-85
2021/06/14 15:59:53;;;;;;;4.10;1.20;;;34.30;38.30;;;;;;4934139;29;20162;-85
2021/06/14 16:02:20;;;;;;;3.30;1.25;;;34.40;38.00;;;;;;4933146;29;20044;-85
2021/06/14 16:04:47;;;;;;;3.15;1.38;;;34.60;38.30;;;;;;4926576;29;20139;-85
2021/06/14 16:07:14;;;;;;;3.15;1.27;;;34.60;40.40;;;;;;4946422;29;20474;-86
2021/06/14 16:09:43;;;;;;;2.63;1.20;;;34.60;37.10;;;;;;4957021;29;20054;-84
2021/06/14 16:12:12;;;;;;;2.95;1.17;;;34.70;36.60;;;;;;4940066;29;20079;-85
2021/06/14 16:14:39;;;;;;;3.65;1.60;;;34.70;36.40;;;;;;4937938;29;20048;-85
2021/06/14 16:17:07;;;;;;;3.75;1.20;;;34.60;37.00;;;;;;4937915;29;20079;-86
2021/06/14 16:19:34;;;;;;;4.07;1.15;;;34.50;37.30;;;;;;4937828;29;20055;-86
2021/06/14 16:22:01;;;;;;;3.15;1.20;;;34.30;37.10;;;;;;4937539;29;20056;-85
2021/06/14 16:24:29;;;;;;;2.88;1.40;;;34.40;36.50;;;;;;4935980;29;20134;-86
2021/06/14 16:26:56;;;;;;;3.63;1.30;;;34.50;36.30;;;;;;4933544;29;20083;-86
2021/06/14 16:29:25;;;;;;;3.22;1.20;;;34.50;36.10;;;;;;4934799;29;20050;-85
2021/06/14 16:31:52;;;;;;;3.97;1.25;;;34.60;36.50;;;;;;4928223;29;20134;-85
2021/06/14 16:34:19;;;;;;;3.80;1.40;;;34.60;36.50;;;;;;4934716;29;20134;-86
2021/06/14 16:36:46;;;;;;;2.50;1.08;;;34.60;35.50;;;;;;4936619;29;20059;-86
2021/06/14 16:39:13;;;;;;;3.25;1.40;;;34.50;35.90;;;;;;4934881;29;20048;-86
2021/06/14 16:41:42;;;;;;;5.03;1.30;;;34.50;35.90;;;;;;4933675;29;20047;-86
2021/06/14 16:44:10;;;;;;;2.67;1.20;;;34.50;36.20;;;;;;4935239;29;20501;-87
2021/06/14 16:46:41;;;;;;;2.80;1.20;;;34.40;36.40;;;;;;4934190;29;20106;-86
2021/06/14 16:49:09;;;;;;;3.30;1.20;;;34.40;36.30;;;;;;4933546;29;20417;-86
2021/06/14 16:51:36;;;;;;;2.83;1.10;;;34.50;36.60;;;;;;4935766;29;20055;-87
2021/06/14 16:54:04;;;;;;;2.60;1.20;;;34.60;36.50;;;;;;4934062;29;20064;-86
2021/06/14 16:56:31;;;;;;;2.85;1.00;;;34.70;36.80;;;;;;4928553;29;20509;-87
2021/06/14 16:58:58;;;;;;;2.83;1.23;;;34.70;37.10;;;;;;4932512;29;20131;-86
2021/06/14 17:01:25;;;;;;;4.15;1.20;;;34.70;36.70;;;;;;4935281;29;20123;-86
2021/06/14 17:03:54;;;;;;;2.83;1.10;;;34.70;36.10;;;;;;4935295;29;20107;-86
2021/06/14 17:06:21;;;;;;;3.45;1.10;;;34.60;36.70;;;;;;4932743;29;20044;-86
2021/06/14 17:08:48;;;;;;;3.17;1.42;;;34.60;36.10;;;;;;4935906;29;20412;-86
2021/06/14 17:11:15;;;;;;;2.25;0.93;;;34.50;36.00;;;;;;4935056;29;20164;-85
2021/06/14 17:13:43;;;;;;;3.58;1.30;;;34.40;36.10;;;;;;4934071;29;20047;-85
2021/06/14 17:16:10;;;;;;;3.25;1.00;;;34.40;35.50;;;;;;4934797;29;20059;-85
2021/06/14 17:18:38;;;;;;;4.00;1.13;;;34.30;35.20;;;;;;4934686;29;20057;-88
2021/06/14 17:21:08;;;;;;;2.63;1.00;;;34.20;35.50;;;;;;4934509;29;20358;-85
2021/06/14 17:23:36;;;;;;;3.28;1.20;;;34.20;36.00;;;;;;4929498;29;20058;-85
2021/06/14 17:26:04;;;;;;;3.47;1.38;;;34.20;35.30;;;;;;4928387;29;20079;-84
2021/06/14 17:28:31;;;;;;;4.13;1.33;;;34.20;34.80;;;;;;4929948;29;20505;-84
2021/06/14 17:30:58;;;;;;;2.80;1.30;;;34.10;35.30;;;;;;4924757;29;20506;-84
2021/06/14 17:33:25;;;;;;;2.47;1.00;;;34.10;36.10;;;;;;4927201;29;20055;-87
2021/06/14 17:35:52;;;;;;;3.22;1.00;;;34.00;36.10;;;;;;4928253;29;20138;-83
2021/06/14 17:38:21;;;;;;;2.35;1.08;;;34.00;35.10;;;;;;4921413;29;20104;-83
2021/06/14 17:40:48;;;;;;;2.08;1.00;;;33.90;35.00;;;;;;4928019;29;20193;-86
2021/06/14 17:43:15;;;;;;;3.47;1.10;;;33.90;35.20;;;;;;4926385;29;20125;-85
2021/06/14 17:45:42;;;;;;;2.58;1.30;;;33.90;35.30;;;;;;4927475;29;20516;-81
2021/06/14 17:48:10;;;;;;;2.78;1.10;;;33.90;35.50;;;;;;4923936;29;20159;-83
2021/06/14 17:50:39;;;;;;;2.38;1.10;;;33.90;35.90;;;;;;4930462;29;20051;-81
2021/06/14 17:53:09;;;;;;;3.22;1.10;;;33.90;35.90;;;;;;4926948;29;20521;-84
2021/06/14 17:55:40;;;;;;;2.72;1.10;;;33.80;35.90;;;;;;4927686;29;20086;-83
2021/06/14 17:58:09;;;;;;;2.10;0.90;;;33.80;36.10;;;;;;4927031;29;20084;-86
2021/06/14 18:00:36;;;;;;;2.95;1.10;;;33.80;36.20;;;;;;4924400;29;20126;-82
2021/06/14 18:03:05;;;;;;;2.17;0.98;;;33.80;36.40;;;;;;4925612;29;20387;-84